createdAt,value
2018-07-05T00:01:20.839Z,5.43
2018-07-05T00:04:02.287Z,5.00
2018-07-05T00:06:43.427Z,5.80
2018-07-05T00:09:24.717Z,6.70
2018-07-05T00:12:05.893Z,5.27
2018-07-05T00:14:47.112Z,5.87
2018-07-05T00:17:28.211Z,6.40
2018-07-05T00:20:10.245Z,5.87
2018-07-05T00:22:51.358Z,6.27
2018-07-05T00:25:32.603Z,5.80
2018-07-05T00:28:13.821Z,6.03
2018-07-05T00:30:55.167Z,5.37
2018-07-05T00:33:36.405Z,7.23
2018-07-05T00:36:17.681Z,6.73
2018-07-05T00:39:00.595Z,6.87
2018-07-05T00:41:41.646Z,6.83
2018-07-05T00:44:23.072Z,6.13
2018-07-05T00:47:05.046Z,6.53
2018-07-05T00:49:46.234Z,7.37
2018-07-05T00:52:27.658Z,6.53
2018-07-05T00:55:09.481Z,8.00
2018-07-05T00:57:50.694Z,7.27
2018-07-05T01:00:31.798Z,8.23
2018-07-05T01:03:12.977Z,8.33
2018-07-05T01:05:54.605Z,7.33
2018-07-05T01:08:36.139Z,7.50
2018-07-05T01:11:17.536Z,7.73
2018-07-05T01:13:58.780Z,7.97
2018-07-05T01:16:40.146Z,8.83
2018-07-05T01:19:21.792Z,9.07
2018-07-05T01:22:03.743Z,8.47
2018-07-05T01:24:45.170Z,11.70
2018-07-05T01:27:26.541Z,9.87
2018-07-05T01:30:08.791Z,7.90
2018-07-05T01:32:50.997Z,8.67
2018-07-05T01:35:32.443Z,8.73
2018-07-05T01:38:13.617Z,8.30
2018-07-05T01:40:55.034Z,9.40
2018-07-05T01:43:36.255Z,8.67
2018-07-05T01:46:18.157Z,9.53
2018-07-05T01:49:00.564Z,8.37
2018-07-05T01:51:42.049Z,8.70
2018-07-05T01:54:23.237Z,8.90
2018-07-05T01:57:04.321Z,8.53
2018-07-05T01:59:45.497Z,8.20
2018-07-05T02:02:26.910Z,8.20
2018-07-05T02:05:08.054Z,9.17
2018-07-05T02:07:49.068Z,8.87
2018-07-05T02:10:30.239Z,8.50
2018-07-05T02:13:11.526Z,8.23
2018-07-05T02:15:52.658Z,9.60
2018-07-05T02:18:33.876Z,9.37
2018-07-05T02:21:15.318Z,8.80
2018-07-05T02:23:56.541Z,9.30
2018-07-05T02:26:37.800Z,8.83
2018-07-05T02:29:20.164Z,10.00
2018-07-05T02:32:01.286Z,9.57
2018-07-05T02:34:42.569Z,9.57
2018-07-05T02:37:28.932Z,9.23
2018-07-05T02:40:10.172Z,9.83
2018-07-05T02:42:51.483Z,10.73
2018-07-05T02:45:32.885Z,11.20
2018-07-05T02:48:14.111Z,10.60
2018-07-05T02:50:55.364Z,10.10
2018-07-05T02:53:36.656Z,10.73
2018-07-05T02:56:18.024Z,11.27
2018-07-05T02:58:59.155Z,11.23
2018-07-05T03:01:40.381Z,11.00
2018-07-05T03:04:21.672Z,10.83
2018-07-05T03:07:03.098Z,10.43
2018-07-05T03:09:44.380Z,10.30
2018-07-05T03:12:25.590Z,10.73
2018-07-05T03:15:08.480Z,10.70
2018-07-05T03:17:50.457Z,10.70
2018-07-05T03:20:32.250Z,10.80
2018-07-05T03:23:13.663Z,11.30
2018-07-05T03:25:54.816Z,11.37
2018-07-05T03:28:35.898Z,11.43
2018-07-05T03:31:17.160Z,11.43
2018-07-05T03:33:58.404Z,11.43
2018-07-05T03:36:39.651Z,10.57
2018-07-05T03:39:21.195Z,11.47
2018-07-05T03:42:03.450Z,12.47
2018-07-05T03:44:45.138Z,12.07
2018-07-05T03:47:26.471Z,11.57
2018-07-05T03:50:08.778Z,11.93
2018-07-05T03:52:50.182Z,11.60
2018-07-05T03:55:31.391Z,11.70
2018-07-05T03:58:12.768Z,12.30
2018-07-05T04:00:54.135Z,12.30
2018-07-05T04:03:35.655Z,12.10
2018-07-05T04:06:17.702Z,11.80
2018-07-05T04:08:59.088Z,12.63
2018-07-05T04:11:40.538Z,12.87
2018-07-05T04:14:22.216Z,11.43
2018-07-05T04:17:03.615Z,12.37
2018-07-05T04:19:48.397Z,12.07
2018-07-05T04:22:29.567Z,12.07
2018-07-05T04:25:12.085Z,11.47
2018-07-05T04:27:53.457Z,12.53
2018-07-05T04:30:34.801Z,11.27
2018-07-05T04:33:15.950Z,11.87
2018-07-05T04:35:57.460Z,12.00
2018-07-05T04:38:38.845Z,12.43
2018-07-05T04:41:20.577Z,12.13
2018-07-05T04:44:01.769Z,11.53
2018-07-05T04:46:43.059Z,11.67
2018-07-05T04:49:24.947Z,11.73
2018-07-05T04:52:06.231Z,12.37
2018-07-05T04:54:49.249Z,12.83
2018-07-05T04:57:30.409Z,12.20
2018-07-05T05:00:11.863Z,12.27
2018-07-05T05:02:52.908Z,12.23
2018-07-05T05:05:34.390Z,11.70
2018-07-05T05:08:18.266Z,11.87
2018-07-05T05:11:01.442Z,11.43
2018-07-05T05:13:42.958Z,11.27
2018-07-05T05:16:24.083Z,12.53
2018-07-05T05:19:05.132Z,11.30
2018-07-05T05:21:46.280Z,11.37
2018-07-05T05:24:27.729Z,10.87
2018-07-05T05:27:08.892Z,11.50
2018-07-05T05:29:49.984Z,10.80
2018-07-05T05:32:33.009Z,10.97
2018-07-05T05:35:14.024Z,11.60
2018-07-05T05:37:59.502Z,11.80
2018-07-05T05:40:40.780Z,12.63
2018-07-05T05:43:15.801Z,11.60
2018-07-05T05:48:58.472Z,10.93
2018-07-05T05:51:40.410Z,10.97
2018-07-05T05:54:22.020Z,11.33
2018-07-05T05:57:03.578Z,10.77
2018-07-05T05:59:45.619Z,11.47
2018-07-05T06:02:27.852Z,10.87
2018-07-05T06:05:09.190Z,10.70
2018-07-05T06:07:50.472Z,11.90
2018-07-05T06:10:31.695Z,11.73
2018-07-05T06:13:13.605Z,12.40
2018-07-05T06:15:55.517Z,11.90
2018-07-05T06:18:37.043Z,12.27
2018-07-05T06:21:18.513Z,13.83
2018-07-05T06:24:04.712Z,12.83
2018-07-05T06:26:46.189Z,14.43
2018-07-05T06:29:29.952Z,14.10
2018-07-05T06:32:11.062Z,13.03
2018-07-05T06:34:52.224Z,10.40
2018-07-05T06:37:33.509Z,10.37
2018-07-05T06:40:14.845Z,9.07
2018-07-05T06:42:56.062Z,9.03
2018-07-05T06:45:37.644Z,8.77
2018-07-05T06:48:18.924Z,8.63
2018-07-05T06:51:03.263Z,8.53
2018-07-05T06:53:44.542Z,9.07
2018-07-05T06:56:25.940Z,10.27
2018-07-05T06:59:07.164Z,7.73
2018-07-05T07:01:48.950Z,8.27
2018-07-05T07:04:30.602Z,6.70
2018-07-05T07:07:12.080Z,5.90
2018-07-05T07:09:53.065Z,5.70
2018-07-05T07:12:34.304Z,5.67
2018-07-05T07:15:15.621Z,6.63
2018-07-05T07:17:57.051Z,7.03
2018-07-05T07:20:38.425Z,5.33
2018-07-05T07:23:19.782Z,7.03
2018-07-05T07:26:01.430Z,5.70
2018-07-05T07:28:43.577Z,5.00
2018-07-05T07:31:24.943Z,4.40
2018-07-05T07:34:05.936Z,4.77
2018-07-05T07:36:48.210Z,4.97
2018-07-05T07:39:29.551Z,4.40
2018-07-05T07:41:58.953Z,3.83
2018-07-05T07:44:27.886Z,4.58
2018-07-05T07:46:57.797Z,4.47
2018-07-05T07:49:27.160Z,4.10
2018-07-05T07:51:56.857Z,3.98
2018-07-05T07:54:26.361Z,3.47
2018-07-05T07:56:55.581Z,3.95
2018-07-05T07:59:25.599Z,2.80
2018-07-05T08:01:54.929Z,3.25
2018-07-05T08:04:24.147Z,2.85
2018-07-05T08:06:53.211Z,3.40
2018-07-05T08:09:23.013Z,4.58
2018-07-05T08:11:52.865Z,3.70
2018-07-05T08:14:22.005Z,4.00
2018-07-05T08:16:51.735Z,3.72
2018-07-05T08:19:20.993Z,3.45
2018-07-05T08:21:50.942Z,4.25
2018-07-05T08:24:19.929Z,3.90
2018-07-05T08:26:48.913Z,4.47
2018-07-05T08:29:18.963Z,3.77
2018-07-05T08:31:47.927Z,4.08
2018-07-05T08:34:18.246Z,3.98
2018-07-05T08:36:48.519Z,3.83
2018-07-05T08:39:18.507Z,5.22
2018-07-05T08:41:48.491Z,4.70
2018-07-05T08:44:17.443Z,4.20
2018-07-05T08:46:46.541Z,4.85
2018-07-05T08:49:15.977Z,3.90
2018-07-05T08:51:45.961Z,3.55
2018-07-05T08:54:15.480Z,5.00
2018-07-05T08:56:46.077Z,3.87
2018-07-05T08:59:15.356Z,3.60
2018-07-05T09:01:45.596Z,3.75
2018-07-05T09:04:14.776Z,4.37
2018-07-05T09:06:45.418Z,3.37
2018-07-05T09:09:15.097Z,2.87
2018-07-05T09:11:45.160Z,3.87
2018-07-05T09:14:14.757Z,3.67
2018-07-05T09:16:44.020Z,3.50
2018-07-05T09:19:13.390Z,2.92
2018-07-05T09:21:42.995Z,3.95
2018-07-05T09:24:14.180Z,3.25
2018-07-05T09:26:43.796Z,3.45
2018-07-05T09:29:13.670Z,2.60
2018-07-05T09:31:43.020Z,3.05
2018-07-05T09:34:13.317Z,1.98
2018-07-05T09:36:42.320Z,2.05
2018-07-05T09:41:55.388Z,1.95
2018-07-05T09:44:24.802Z,2.17
2018-07-05T09:46:54.140Z,2.12
2018-07-05T09:49:23.743Z,2.30
2018-07-05T09:51:53.660Z,2.10
2018-07-05T09:54:23.558Z,2.12
2018-07-05T09:56:53.755Z,2.70
2018-07-05T09:59:23.030Z,2.10
2018-07-05T10:01:52.938Z,2.00
2018-07-05T10:04:23.010Z,1.77
2018-07-05T10:06:52.653Z,2.10
2018-07-05T10:09:21.652Z,2.35
2018-07-05T10:11:51.232Z,1.90
2018-07-05T10:14:22.081Z,2.10
2018-07-05T10:16:51.193Z,2.20
2018-07-05T10:19:21.466Z,2.90
2018-07-05T10:21:51.226Z,2.05
2018-07-05T10:24:20.567Z,2.08
2018-07-05T10:26:49.666Z,2.00
2018-07-05T10:29:31.571Z,2.02
2018-07-05T10:32:12.858Z,1.90
2018-07-05T10:34:41.982Z,2.05
2018-07-05T10:37:11.414Z,2.55
2018-07-05T10:39:40.418Z,2.00
2018-07-05T10:42:22.703Z,2.40
2018-07-05T10:45:04.212Z,2.10
2018-07-05T10:47:45.329Z,2.25
2018-07-05T10:50:26.470Z,2.30
2018-07-05T10:53:07.802Z,2.08
2018-07-05T10:55:49.052Z,2.20
2018-07-05T10:58:30.272Z,2.33
2018-07-05T11:01:15.952Z,4.15
2018-07-05T11:03:57.345Z,2.98
2018-07-05T11:06:39.172Z,2.20
2018-07-05T11:09:20.307Z,2.25
2018-07-05T11:12:01.594Z,2.10
2018-07-05T11:14:46.806Z,1.95
2018-07-05T11:17:31.324Z,2.10
2018-07-05T11:20:12.669Z,1.90
2018-07-05T11:22:54.235Z,2.60
2018-07-05T11:25:35.508Z,2.70
2018-07-05T11:28:16.792Z,2.10
2018-07-05T11:30:58.150Z,2.45
2018-07-05T11:33:39.298Z,2.25
2018-07-05T11:36:20.824Z,2.30
2018-07-05T11:39:02.887Z,2.00
2018-07-05T11:41:44.083Z,1.85
2018-07-05T11:44:26.474Z,1.90
2018-07-05T11:47:07.732Z,1.90
2018-07-05T11:49:49.199Z,1.80
2018-07-05T11:52:30.682Z,1.85
2018-07-05T11:55:11.962Z,1.80
2018-07-05T11:57:53.461Z,1.55
2018-07-05T12:00:34.834Z,1.70
2018-07-05T12:03:16.069Z,1.52
2018-07-05T12:05:57.183Z,2.05
2018-07-05T12:08:38.637Z,1.57
2018-07-05T12:11:20.551Z,1.92
2018-07-05T12:14:01.798Z,2.15
2018-07-05T12:16:43.047Z,2.27
2018-07-05T12:19:24.404Z,2.25
2018-07-05T12:22:05.841Z,2.42
2018-07-05T12:24:47.333Z,2.30
2018-07-05T12:27:29.213Z,2.85
2018-07-05T12:30:11.538Z,2.45
2018-07-05T12:32:52.826Z,3.00
2018-07-05T12:35:34.605Z,2.97
2018-07-05T12:38:15.941Z,2.60
2018-07-05T12:40:57.511Z,3.00
2018-07-05T12:43:38.832Z,2.70
2018-07-05T12:46:20.121Z,3.10
2018-07-05T12:49:01.247Z,3.43
2018-07-05T12:51:42.286Z,3.50
2018-07-05T12:54:24.183Z,3.40
2018-07-05T12:57:05.240Z,3.93
2018-07-05T12:59:46.440Z,3.60
2018-07-05T13:02:27.995Z,2.93
2018-07-05T13:05:09.555Z,3.20
2018-07-05T13:07:50.893Z,3.33
2018-07-05T13:10:32.528Z,3.00
2018-07-05T13:13:13.724Z,3.07
2018-07-05T13:15:55.097Z,2.87
2018-07-05T13:18:36.309Z,3.10
2018-07-05T13:21:18.497Z,2.67
2018-07-05T13:24:00.107Z,2.83
2018-07-05T13:26:42.069Z,2.70
2018-07-05T13:29:25.483Z,2.80
2018-07-05T13:32:06.694Z,3.10
2018-07-05T13:34:47.860Z,3.03
2018-07-05T13:37:29.043Z,3.53
2018-07-05T13:40:10.309Z,3.57
2018-07-05T13:42:51.435Z,2.80
2018-07-05T13:45:33.089Z,2.70
2018-07-05T13:48:14.212Z,2.77
2018-07-05T13:50:55.685Z,3.33
2018-07-05T13:53:37.706Z,2.00
2018-07-05T13:56:18.913Z,2.27
2018-07-05T13:58:59.996Z,3.80
2018-07-05T14:01:41.405Z,2.40
2018-07-05T14:04:22.574Z,1.63
2018-07-05T14:07:03.980Z,2.00
2018-07-05T14:09:45.296Z,1.63
2018-07-05T14:12:27.503Z,2.60
2018-07-05T14:15:08.802Z,1.83
2018-07-05T14:17:50.581Z,1.50
2018-07-05T14:20:32.024Z,1.80
2018-07-05T14:23:13.057Z,1.53
2018-07-05T14:25:56.497Z,1.50
2018-07-05T14:28:37.565Z,1.77
2018-07-05T14:31:19.018Z,1.70
2018-07-05T14:34:00.315Z,1.70
2018-07-05T14:36:42.568Z,1.70
2018-07-05T14:39:24.017Z,1.63
2018-07-05T14:42:05.716Z,1.47
2018-07-05T14:44:46.848Z,1.80
2018-07-05T14:47:28.724Z,1.90
2018-07-05T14:50:10.256Z,1.97
2018-07-05T14:52:51.668Z,2.73
2018-07-05T14:55:32.813Z,2.43
2018-07-05T14:58:13.992Z,2.70
2018-07-05T15:00:55.748Z,3.00
2018-07-05T15:03:37.625Z,2.40
2018-07-05T15:06:18.801Z,2.67
2018-07-05T15:09:00.150Z,2.93
2018-07-05T15:11:41.550Z,3.13
2018-07-05T15:14:24.652Z,3.13
2018-07-05T15:17:06.479Z,2.77
2018-07-05T15:19:47.816Z,3.30
2018-07-05T15:22:30.262Z,3.83
2018-07-05T15:25:11.520Z,4.00
2018-07-05T15:27:52.650Z,5.57
2018-07-05T15:30:33.971Z,5.67
2018-07-05T15:33:27.220Z,5.37
2018-07-05T15:36:14.602Z,5.37
2018-07-05T15:38:55.914Z,5.00
2018-07-05T15:41:37.300Z,6.80
2018-07-05T15:44:19.213Z,5.63
2018-07-05T15:49:47.802Z,5.97
2018-07-05T15:52:30.428Z,6.03
2018-07-05T15:55:12.510Z,6.70
2018-07-05T15:57:54.337Z,5.20
2018-07-05T16:00:36.030Z,5.70
2018-07-05T16:03:24.846Z,6.40
2018-07-05T16:06:06.445Z,5.60
2018-07-05T16:08:48.967Z,5.50
2018-07-05T16:11:31.176Z,6.30
2018-07-05T16:14:13.024Z,5.97
2018-07-05T16:16:57.552Z,5.70
2018-07-05T16:19:40.807Z,5.37
2018-07-05T16:22:22.630Z,6.23
2018-07-05T16:25:04.769Z,9.13
2018-07-05T16:27:46.954Z,7.80
2018-07-05T16:30:28.447Z,8.90
2018-07-05T16:33:09.949Z,6.73
2018-07-05T16:35:51.525Z,6.50
2018-07-05T16:38:32.679Z,7.63
2018-07-05T16:41:13.946Z,7.07
2018-07-05T16:43:56.129Z,6.67
2018-07-05T16:46:37.601Z,7.13
2018-07-05T16:49:18.920Z,5.67
2018-07-05T16:52:00.593Z,5.23
2018-07-05T16:54:41.931Z,5.47
2018-07-05T16:57:23.069Z,5.97
2018-07-05T17:00:04.844Z,5.60
2018-07-05T17:02:46.778Z,6.00
2018-07-05T17:05:28.060Z,6.07
2018-07-05T17:08:10.290Z,5.83
2018-07-05T17:10:51.405Z,5.80
2018-07-05T17:13:33.029Z,5.53
2018-07-05T17:16:15.052Z,5.60
2018-07-05T17:18:56.307Z,5.20
2018-07-05T17:21:38.475Z,5.60
2018-07-05T17:24:19.652Z,4.53
2018-07-05T17:27:00.832Z,6.70
2018-07-05T17:29:42.107Z,5.23
2018-07-05T17:32:23.246Z,5.07
2018-07-05T17:35:05.358Z,5.93
2018-07-05T17:37:46.484Z,5.30
2018-07-05T17:40:28.521Z,5.53
2018-07-05T17:43:09.851Z,5.63
2018-07-05T17:45:51.840Z,8.60
2018-07-05T17:48:33.213Z,9.20
2018-07-05T17:51:16.212Z,5.73
2018-07-05T17:53:57.520Z,5.67
2018-07-05T17:56:39.066Z,5.77
2018-07-05T17:59:20.147Z,6.30
2018-07-05T18:02:02.405Z,5.20
2018-07-05T18:04:45.091Z,6.20
2018-07-05T18:07:26.776Z,6.57
2018-07-05T18:10:08.348Z,6.37
2018-07-05T18:12:49.478Z,16.40
2018-07-05T18:15:30.913Z,10.07
2018-07-05T18:18:12.312Z,9.57
2018-07-05T18:20:53.650Z,9.27
2018-07-05T18:23:35.050Z,8.00
2018-07-05T18:26:16.800Z,7.80
2018-07-05T18:28:58.200Z,9.03
2018-07-05T18:31:39.468Z,8.20
2018-07-05T18:34:21.286Z,9.43
2018-07-05T18:37:02.836Z,8.80
2018-07-05T18:39:44.156Z,9.53
2018-07-05T18:42:25.378Z,10.10
2018-07-05T18:45:06.620Z,11.40
2018-07-05T18:47:47.808Z,11.90
2018-07-05T18:50:28.858Z,11.93
2018-07-05T18:53:09.986Z,14.13
2018-07-05T18:55:51.297Z,12.87
2018-07-05T18:58:32.559Z,14.00
2018-07-05T19:01:14.070Z,11.67
2018-07-05T19:03:55.528Z,12.07
2018-07-05T19:06:37.182Z,12.37
2018-07-05T19:09:19.814Z,12.87
2018-07-05T19:12:01.330Z,12.57
2018-07-05T19:14:42.679Z,12.33
2018-07-05T19:17:24.072Z,12.60
2018-07-05T19:20:05.403Z,13.33
2018-07-05T19:22:47.512Z,23.97
2018-07-05T19:25:28.729Z,13.50
2018-07-05T19:28:10.354Z,11.63
2018-07-05T19:30:52.019Z,12.67
2018-07-05T19:33:33.286Z,12.07
2018-07-05T19:36:15.958Z,13.80
2018-07-05T19:38:57.744Z,12.37
2018-07-05T19:41:39.034Z,12.80
2018-07-05T19:44:20.258Z,14.30
2018-07-05T19:47:01.586Z,15.20
2018-07-05T19:49:42.815Z,15.27
2018-07-05T19:52:23.967Z,14.27
2018-07-05T19:55:05.235Z,17.10
2018-07-05T19:57:46.284Z,17.63
2018-07-05T20:00:27.771Z,15.53
2018-07-05T20:03:09.154Z,16.93
2018-07-05T20:05:50.369Z,16.87
2018-07-05T20:08:33.803Z,16.93
2018-07-05T20:11:15.528Z,15.50
2018-07-05T20:13:57.068Z,16.57
2018-07-05T20:16:38.383Z,17.83
2018-07-05T20:19:20.543Z,17.07
2018-07-05T20:22:02.474Z,20.80
2018-07-05T20:24:43.642Z,22.80
2018-07-05T20:27:25.575Z,21.37
2018-07-05T20:30:16.432Z,21.87
2018-07-05T20:32:59.050Z,23.33
2018-07-05T20:35:40.499Z,23.03
2018-07-05T20:38:22.212Z,22.87
2018-07-05T20:41:03.433Z,23.57
2018-07-05T20:43:45.513Z,22.93
2018-07-05T20:46:27.256Z,22.43
2018-07-05T20:49:08.654Z,21.77
2018-07-05T20:51:50.495Z,21.43
2018-07-05T20:54:31.697Z,21.87
2018-07-05T20:57:12.973Z,23.03
2018-07-05T20:59:54.587Z,22.03
2018-07-05T21:02:35.880Z,21.83
2018-07-05T21:05:17.182Z,21.67
2018-07-05T21:07:59.076Z,22.57
2018-07-05T21:10:40.396Z,22.10
2018-07-05T21:13:22.915Z,19.03
2018-07-05T21:16:04.902Z,22.23
2018-07-05T21:18:46.135Z,19.50
2018-07-05T21:21:27.463Z,20.33
2018-07-05T21:24:09.017Z,17.97
2018-07-05T21:26:50.165Z,18.33
2018-07-05T21:29:31.608Z,19.03
2018-07-05T21:32:13.818Z,17.07
2018-07-05T21:34:55.729Z,16.47
2018-07-05T21:37:37.616Z,16.17
2018-07-05T21:40:18.739Z,15.50
2018-07-05T21:43:00.682Z,16.13
2018-07-05T21:45:42.328Z,15.97
2018-07-05T21:48:23.873Z,14.93
2018-07-05T21:51:06.142Z,15.17
2018-07-05T21:53:47.934Z,14.43
2018-07-05T21:56:29.171Z,14.67
2018-07-05T21:59:10.620Z,15.80
2018-07-05T22:01:52.233Z,15.00
2018-07-05T22:04:33.591Z,14.23
2018-07-05T22:07:15.937Z,14.23
2018-07-05T22:09:57.504Z,15.30
2018-07-05T22:12:39.001Z,14.17
2018-07-05T22:15:21.982Z,14.87
2018-07-05T22:18:13.401Z,15.33
2018-07-05T22:21:01.642Z,16.03
2018-07-05T22:25:53.063Z,14.43
2018-07-05T22:28:39.399Z,15.00
2018-07-05T22:31:25.718Z,16.00
2018-07-05T22:34:07.044Z,14.93
2018-07-05T22:36:48.210Z,15.27
2018-07-05T22:39:29.504Z,13.97
2018-07-05T22:42:10.735Z,13.30
2018-07-05T22:44:52.585Z,14.27
2018-07-05T22:47:34.253Z,14.93
2018-07-05T22:50:16.606Z,14.30
2018-07-05T22:52:58.293Z,14.23
2018-07-05T22:55:40.305Z,14.97
2018-07-05T22:58:22.409Z,15.63
2018-07-05T23:01:03.629Z,15.80
2018-07-05T23:03:45.078Z,15.47
2018-07-05T23:06:26.397Z,15.93
2018-07-05T23:09:09.348Z,18.10
2018-07-05T23:11:50.487Z,16.40
2018-07-05T23:14:32.426Z,18.10
2018-07-05T23:17:13.806Z,16.13
2018-07-05T23:19:56.602Z,16.53
2018-07-05T23:22:37.862Z,20.30
2018-07-05T23:25:19.802Z,15.47
2018-07-05T23:28:01.108Z,18.23
2018-07-05T23:30:44.786Z,15.77
2018-07-05T23:33:29.143Z,17.00
2018-07-05T23:36:10.377Z,17.67
2018-07-05T23:38:52.298Z,19.80
2018-07-05T23:41:33.541Z,17.53
2018-07-05T23:44:15.420Z,19.27
2018-07-05T23:46:57.091Z,19.77
2018-07-05T23:49:38.622Z,23.00
2018-07-05T23:52:19.727Z,20.07
2018-07-05T23:55:00.996Z,22.20
2018-07-05T23:57:43.261Z,20.07
